Time;durP1;ratioP1;P1;durP2;ratioP2;P2;SDS_P1;SDS_P2;PMS_P1;PMS_P2;Temp;Humidity;BMP_temperature;BMP_pressure;BME280_temperature;BME280_humidity;BME280_pressure;Samples;Min_cycle;Max_cycle;Signal;HPM_P1;HPM_P2
2022/06/21 00:01:25;;;;;;;10.20;2.38;;;;;;;12.98;100.00;101705.75;4908734;29;20052;-78
2022/06/21 00:03:54;;;;;;;11.87;2.80;;;;;;;12.90;100.00;101709.22;4896390;29;20048;-78
2022/06/21 00:06:25;;;;;;;7.20;2.47;;;;;;;12.81;100.00;101710.91;4873154;29;20048;-78
2022/06/21 00:08:54;;;;;;;;;;;;;;;12.74;100.00;101710.84;4906726;29;20059;-78
2022/06/21 00:11:30;;;;;;;9.45;2.42;;;;;;;12.65;100.00;101720.47;4901947;29;20393;-78
2022/06/21 00:14:00;;;;;;;10.32;2.72;;;;;;;12.59;100.00;101727.47;4905219;29;20103;-78
2022/06/21 00:16:30;;;;;;;8.77;2.78;;;;;;;12.54;100.00;101722.16;4892089;29;20044;-78
2022/06/21 00:18:59;;;;;;;10.27;2.55;;;;;;;12.52;100.00;101730.94;4884599;29;20051;-78
2022/06/21 00:21:35;;;;;;;12.48;2.38;;;;;;;12.48;100.00;101730.91;4906965;29;20512;-78
2022/06/21 00:24:04;;;;;;;7.05;2.78;;;;;;;12.49;100.00;101721.22;4871992;29;20040;-78
2022/06/21 00:26:32;;;;;;;6.68;2.22;;;;;;;12.46;100.00;101722.09;4907734;29;20545;-78
2022/06/21 00:29:01;;;;;;;8.40;2.88;;;;;;;12.47;100.00;101723.84;4888813;29;20514;-78
2022/06/21 00:31:32;;;;;;;7.10;2.38;;;;;;;12.50;100.00;101719.47;4891267;29;20406;-78
2022/06/21 00:34:21;;;;;;;12.23;2.45;;;;;;;12.51;100.00;101722.09;4889721;29;20047;-78
2022/06/21 00:36:51;;;;;;;7.65;2.25;;;;;;;12.51;100.00;101718.59;4898002;29;20052;-78
2022/06/21 00:39:20;;;;;;;8.00;2.63;;;;;;;12.51;100.00;101713.31;4889061;29;20449;-78
2022/06/21 00:41:54;;;;;;;10.88;3.00;;;;;;;12.48;100.00;101717.69;4900380;29;20083;-78
2022/06/21 00:44:46;;;;;;;6.47;2.58;;;;;;;12.50;100.00;101712.44;4889722;29;20066;-78
2022/06/21 00:47:24;;;;;;;9.40;2.65;;;;;;;12.47;100.00;101702.69;4905027;29;20262;-78
2022/06/21 00:49:57;;;;;;;7.25;2.58;;;;;;;12.46;100.00;101700.94;4889029;29;20044;-78
2022/06/21 00:52:44;;;;;;;10.07;2.95;;;;;;;12.41;100.00;101697.34;4872616;29;20071;-78
2022/06/21 00:55:19;;;;;;;11.45;2.60;;;;;;;12.37;100.00;101702.63;4903852;29;20059;-78
2022/06/21 00:57:55;;;;;;;9.65;3.10;;;;;;;12.32;100.00;101696.38;4889557;29;20382;-78
2022/06/21 01:00:37;;;;;;;11.57;2.38;;;;;;;12.28;100.00;101696.34;4913704;29;20363;-78
2022/06/21 01:03:12;;;;;;;8.32;2.60;;;;;;;12.25;100.00;101692.81;4900237;29;20178;-78
2022/06/21 01:05:44;;;;;;;10.60;2.80;;;;;;;12.21;100.00;101704.19;4900063;29;20037;-78
2022/06/21 01:08:20;;;;;;;7.75;2.33;;;;;;;12.17;100.00;101697.13;4864561;29;20158;-77
2022/06/21 01:10:53;;;;;;;10.52;3.13;;;;;;;12.14;100.00;101691.81;4905760;29;20051;-77
2022/06/21 01:13:29;;;;;;;12.55;3.53;;;;;;;12.11;100.00;101705.00;4890195;29;20174;-77
2022/06/21 01:15:57;;;;;;;9.65;2.90;;;;;;;12.09;100.00;101691.75;4904455;29;20044;-77
2022/06/21 01:18:27;;;;;;;7.63;2.78;;;;;;;12.06;100.00;101682.06;4903975;29;20059;-77
2022/06/21 01:20:58;;;;;;;9.13;2.45;;;;;;;12.04;100.00;101686.44;4895665;29;20032;-77
2022/06/21 01:23:27;;;;;;;;;;;;;;;12.00;100.00;101681.09;4872707;29;20063;-77
2022/06/21 01:26:19;;;;;;;9.82;2.67;;;;;;;11.95;100.00;101686.34;4907376;29;20385;-77
2022/06/21 01:28:48;;;;;;;5.70;2.50;;;;;;;11.92;100.00;101683.66;4899417;29;20048;-77
2022/06/21 01:31:17;;;;;;;8.55;2.38;;;;;;;11.89;100.00;101683.59;4889995;29;20181;-77
2022/06/21 01:33:45;;;;;;;10.85;2.92;;;;;;;11.85;100.00;101685.31;4909874;29;20074;-77
2022/06/21 01:36:21;;;;;;;3.75;2.55;;;;;;;11.82;100.00;101695.84;4882340;29;20036;-77
2022/06/21 01:39:03;;;;;;;12.68;2.70;;;;;;;11.78;100.00;101694.03;4904666;29;20422;-77
2022/06/21 01:41:56;;;;;;;8.50;2.67;;;;;;;11.77;100.00;101680.81;4917375;29;20506;-77
2022/06/21 01:44:29;;;;;;;13.27;2.50;;;;;;;11.75;100.00;101675.50;4901457;29;20269;-77
2022/06/21 01:47:02;;;;;;;18.92;3.55;;;;;;;11.74;100.00;101680.75;4905981;29;20047;-77
2022/06/21 01:49:33;;;;;;;13.10;2.83;;;;;;;11.68;100.00;101682.47;4910918;29;20400;-77
2022/06/21 01:52:09;;;;;;;8.05;2.55;;;;;;;11.65;100.00;101687.72;4892833;29;20528;-77
2022/06/21 01:54:43;;;;;;;11.35;3.08;;;;;;;11.62;100.00;101681.50;4872863;29;20506;-77
2022/06/21 01:57:13;;;;;;;10.88;2.55;;;;;;;11.59;100.00;101673.56;4906442;29;20291;-77
2022/06/21 01:59:46;;;;;;;7.03;2.50;;;;;;;11.56;100.00;101674.41;4922613;29;20050;-77
2022/06/21 02:02:23;;;;;;;11.32;3.13;;;;;;;11.55;100.00;101669.09;4905270;29;20171;-77
2022/06/21 02:05:00;;;;;;;9.57;2.90;;;;;;;11.52;100.00;101660.28;4907723;29;20056;-77
2022/06/21 02:07:34;;;;;;;6.18;2.83;;;;;;;11.51;100.00;101653.25;4895839;29;20402;-77
2022/06/21 02:10:12;;;;;;;9.98;3.03;;;;;;;11.50;100.00;101650.56;4872010;29;20056;-77
2022/06/21 02:12:48;;;;;;;6.35;3.00;;;;;;;11.47;100.00;101653.16;4888831;29;20036;-77
2022/06/21 02:15:45;;;;;;;10.00;3.40;;;;;;;11.44;100.00;101645.22;4892371;29;20178;-77
2022/06/21 02:18:15;;;;;;;9.18;2.85;;;;;;;11.41;100.00;101645.19;4902159;29;20700;-77
2022/06/21 02:20:46;;;;;;;12.02;2.92;;;;;;;11.38;100.00;101645.13;4908689;29;20044;-77
2022/06/21 02:23:18;;;;;;;7.65;2.85;;;;;;;11.36;100.00;101646.88;4897462;29;20048;-77
2022/06/21 02:25:46;;;;;;;8.20;2.88;;;;;;;11.32;100.00;101641.56;4875269;29;20043;-77
2022/06/21 02:28:16;;;;;;;13.38;3.88;;;;;;;11.30;100.00;101639.75;4892664;29;20417;-77
2022/06/21 02:30:50;;;;;;;10.02;2.97;;;;;;;11.28;100.00;101644.13;4899984;29;20056;-77
2022/06/21 02:33:28;;;;;;;7.30;2.97;;;;;;;11.25;100.00;101649.38;4903958;29;20048;-77
2022/06/21 02:36:10;;;;;;;13.07;3.17;;;;;;;11.21;100.00;101648.47;4905834;29;20052;-77
2022/06/21 02:38:45;;;;;;;9.32;3.33;;;;;;;11.19;100.00;101650.19;4892169;29;20044;-77
2022/06/21 02:41:22;;;;;;;10.30;3.20;;;;;;;11.17;100.00;101662.47;4855849;29;20413;-77
2022/06/21 02:44:16;;;;;;;4.22;2.53;;;;;;;11.13;100.00;101650.09;4903660;29;20051;-77
2022/06/21 02:46:49;;;;;;;5.53;3.03;;;;;;;11.11;100.00;101651.81;4899549;29;20056;-77
2022/06/21 02:49:26;;;;;;;8.45;3.10;;;;;;;11.08;100.00;101644.75;4903985;29;20258;-77
2022/06/21 02:51:57;;;;;;;7.65;3.10;;;;;;;11.06;100.00;101646.50;4904511;29;20047;-77
2022/06/21 02:54:28;;;;;;;;;;;;;;;11.04;100.00;101639.41;4898031;29;20044;-77
2022/06/21 02:57:22;;;;;;;9.32;3.25;;;;;;;11.02;100.00;101643.78;4867940;29;19930;-77
2022/06/21 02:59:52;;;;;;;10.18;3.22;;;;;;;10.98;100.00;101639.31;4882138;29;20036;-77
2022/06/21 03:02:24;;;;;;;8.80;3.00;;;;;;;10.97;100.00;101653.41;4904045;29;20071;-77
2022/06/21 03:04:56;;;;;;;12.52;3.88;;;;;;;10.94;100.00;101646.31;4872655;29;20052;-77
2022/06/21 03:07:34;;;;;;;11.55;3.47;;;;;;;10.90;100.00;101641.84;4906045;29;20067;-76
2022/06/21 03:10:03;;;;;;;6.03;3.42;;;;;;;10.88;100.00;101644.47;4894926;29;20063;-77
2022/06/21 03:12:33;;;;;;;10.73;3.25;;;;;;;10.86;100.00;101640.91;4871720;29;20040;-77
2022/06/21 03:15:08;;;;;;;8.60;3.58;;;;;;;10.86;100.00;101637.41;4898468;29;20063;-77
2022/06/21 03:17:42;;;;;;;6.90;3.33;;;;;;;10.85;100.00;101643.53;4900339;29;20044;-77
2022/06/21 03:20:17;;;;;;;5.80;3.42;;;;;;;10.84;100.00;101650.56;4903305;29;20052;-77
2022/06/21 03:22:48;;;;;;;6.10;4.07;;;;;;;10.84;100.00;101634.75;4905327;29;20052;-77
2022/06/21 03:25:34;;;;;;;7.78;3.60;;;;;;;10.84;100.00;101637.38;4896533;29;20053;-78
2022/06/21 03:28:02;;;;;;;11.60;4.65;;;;;;;10.84;100.00;101634.75;4862506;29;20107;-78
2022/06/21 03:30:34;;;;;;;8.52;4.40;;;;;;;10.84;100.00;101640.00;4916612;29;20040;-77
2022/06/21 03:33:04;;;;;;;9.77;4.05;;;;;;;10.83;100.00;101638.25;4910468;29;20052;-78
2022/06/21 03:35:34;;;;;;;13.40;3.88;;;;;;;10.79;100.00;101633.78;4909517;29;20289;-77
2022/06/21 03:38:03;;;;;;;10.35;3.90;;;;;;;10.78;100.00;101633.78;4903310;29;20376;-77
2022/06/21 03:43:26;;;;;;;17.45;5.35;;;;;;;10.74;100.00;101648.66;4869127;29;20174;-78
2022/06/21 03:45:58;;;;;;;10.07;5.40;;;;;;;10.70;100.00;101644.22;4907815;29;20052;-78
2022/06/21 03:48:27;;;;;;;10.05;5.43;;;;;;;10.69;100.00;101642.41;4906480;29;20410;-77
2022/06/21 03:51:01;;;;;;;12.20;5.38;;;;;;;10.70;100.00;101644.22;4904661;29;20055;-77
2022/06/21 03:54:12;;;;;;;8.98;4.43;;;;;;;10.72;100.00;101640.72;4889904;29;20109;-78
2022/06/21 03:56:43;;;;;;;7.88;4.70;;;;;;;10.77;100.00;101646.06;4861292;29;20596;-77
2022/06/21 03:59:18;;;;;;;10.40;4.32;;;;;;;10.79;100.00;101644.31;4817800;29;20164;-77
2022/06/21 04:02:19;;;;;;;9.30;5.00;;;;;;;10.83;100.00;101637.34;4874749;29;20499;-77
2022/06/21 04:04:59;;;;;;;6.63;4.40;;;;;;;10.87;100.00;101645.34;4885338;29;20391;-77
2022/06/21 04:07:34;;;;;;;9.40;4.87;;;;;;;10.90;100.00;101634.81;4889312;29;20044;-77
2022/06/21 04:10:15;;;;;;;11.02;5.28;;;;;;;10.96;100.00;101641.94;4901121;29;20060;-77
2022/06/21 04:12:51;;;;;;;8.07;4.43;;;;;;;10.99;100.00;101646.38;4888645;29;20052;-77
2022/06/21 04:15:41;;;;;;;9.43;4.50;;;;;;;11.03;100.00;101641.16;4889931;29;20070;-77
2022/06/21 04:18:18;;;;;;;7.55;4.70;;;;;;;11.08;100.00;101642.13;4901931;29;20172;-77
2022/06/21 04:21:13;;;;;;;10.85;5.18;;;;;;;11.16;100.00;101658.06;4891391;29;20040;-77
2022/06/21 04:23:50;;;;;;;9.32;5.00;;;;;;;11.21;100.00;101663.38;4889305;29;20395;-77
2022/06/21 04:26:50;;;;;;;10.23;5.13;;;;;;;11.30;100.00;101658.22;4892598;29;20044;-77
2022/06/21 04:29:30;;;;;;;9.48;4.72;;;;;;;11.41;100.00;101663.66;4863398;29;20052;-77
2022/06/21 04:32:07;;;;;;;6.53;5.30;;;;;;;11.52;100.00;101669.94;4904520;29;20052;-77
2022/06/21 04:34:44;;;;;;;9.07;4.80;;;;;;;11.61;100.00;101670.06;4900894;29;20060;-77
2022/06/21 04:37:29;;;;;;;12.23;5.95;;;;;;;11.70;100.00;101664.91;4901565;29;20250;-77
2022/06/21 04:40:07;;;;;;;13.07;6.00;;;;;;;11.81;100.00;101653.56;4904457;29;20052;-76
2022/06/21 04:42:46;;;;;;;9.02;4.88;;;;;;;11.89;100.00;101655.47;4876307;29;20049;-76
2022/06/21 04:45:21;;;;;;;12.45;5.03;;;;;;;12.01;100.00;101662.63;4860790;29;20150;-76
2022/06/21 04:48:27;;;;;;;11.50;4.93;;;;;;;12.12;100.00;101652.16;4905184;29;20044;-78
2022/06/21 04:51:21;;;;;;;7.38;4.22;;;;;;;12.24;100.00;101661.97;4909580;29;20055;-77
2022/06/21 04:54:13;;;;;;;8.95;5.03;;;;;;;12.34;100.00;101655.00;4905841;29;20048;-77
2022/06/21 04:56:55;;;;;;;9.02;4.75;;;;;;;12.44;100.00;101657.75;4905280;29;20063;-77
2022/06/21 04:59:46;;;;;;;7.30;4.47;;;;;;;12.56;100.00;101662.25;4868689;29;20706;-77
2022/06/21 05:02:28;;;;;;;12.07;4.68;;;;;;;12.66;100.00;101665.84;4904378;29;20551;-77
2022/06/21 05:05:05;;;;;;;10.00;4.18;;;;;;;12.76;100.00;101675.63;4897608;29;20047;-77
2022/06/21 05:07:44;;;;;;;10.15;4.78;;;;;;;12.90;100.00;101664.25;4905815;29;20056;-77
2022/06/21 05:10:23;;;;;;;9.23;3.55;;;;;;;13.18;100.00;101660.00;4907870;29;20144;-77
2022/06/21 05:12:54;;;;;;;11.13;4.85;;;;;;;13.84;100.00;101661.19;4907655;29;20532;-77
2022/06/21 05:15:31;;;;;;;5.95;3.30;;;;;;;14.94;100.00;101659.50;4882132;29;20560;-77
2022/06/21 05:18:14;;;;;;;7.25;3.42;;;;;;;16.17;100.00;101660.75;4907284;29;20525;-77
2022/06/21 05:20:52;;;;;;;6.45;2.85;;;;;;;17.30;100.00;101656.16;4906550;29;20045;-77
2022/06/21 05:23:23;;;;;;;6.55;3.08;;;;;;;18.31;100.00;101656.56;4909403;29;20238;-77
2022/06/21 05:25:52;;;;;;;3.28;2.17;;;;;;;19.20;100.00;101646.09;4908257;29;20036;-77
2022/06/21 05:28:44;;;;;;;7.63;2.53;;;;;;;20.01;100.00;101630.09;4907128;29;20051;-77
2022/06/21 05:31:19;;;;;;;7.13;1.75;;;;;;;20.85;100.00;101634.28;4863737;29;20525;-77
2022/06/21 05:33:52;;;;;;;7.45;2.20;;;;;;;21.36;99.63;101644.47;4911335;29;20067;-77
2022/06/21 05:36:26;;;;;;;5.30;2.08;;;;;;;21.74;94.89;101649.63;4902388;29;20271;-77
2022/06/21 05:39:04;;;;;;;3.92;2.15;;;;;;;22.16;91.95;101660.81;4907015;29;20044;-77
2022/06/21 05:41:41;;;;;;;5.57;2.58;;;;;;;22.42;83.40;101669.84;4909599;29;20059;-77
2022/06/21 05:44:13;;;;;;;5.38;1.75;;;;;;;22.58;83.57;101657.63;4906627;29;20297;-77
2022/06/21 05:46:50;;;;;;;4.18;1.60;;;;;;;22.81;81.23;101663.16;4877059;29;20051;-77
2022/06/21 05:49:26;;;;;;;5.70;2.00;;;;;;;23.08;78.67;101659.53;4894798;29;20620;-77
2022/06/21 05:51:57;;;;;;;3.60;1.52;;;;;;;23.48;77.60;101660.72;4903231;29;20063;-77
2022/06/21 05:54:31;;;;;;;5.72;1.77;;;;;;;23.70;73.30;101658.06;4891614;29;20048;-77
2022/06/21 05:57:02;;;;;;;5.43;1.52;;;;;;;23.65;71.66;101660.09;4905555;29;20396;-77
2022/06/21 05:59:30;;;;;;;6.20;1.73;;;;;;;23.12;68.86;101657.63;4921925;29;20722;-77
2022/06/21 06:02:17;;;;;;;4.88;1.70;;;;;;;22.36;67.30;101659.28;4862644;29;20052;-77
2022/06/21 06:04:49;;;;;;;6.03;1.80;;;;;;;21.60;69.76;101658.94;4909686;29;20056;-77
2022/06/21 06:07:28;;;;;;;8.23;1.90;;;;;;;21.17;71.24;101653.94;4895800;29;20048;-77
2022/06/21 06:10:00;;;;;;;4.50;1.70;;;;;;;20.98;72.36;101664.28;4905404;29;21864;-77
2022/06/21 06:12:36;;;;;;;5.30;1.50;;;;;;;20.90;71.70;101653.78;4908447;29;20067;-76
2022/06/21 06:15:06;;;;;;;3.85;1.80;;;;;;;20.78;71.89;101651.44;4906375;29;20064;-77
2022/06/21 06:17:47;;;;;;;2.75;1.52;;;;;;;20.68;71.28;101658.84;4856999;29;20055;-77
2022/06/21 06:20:41;;;;;;;3.15;1.30;;;;;;;20.63;70.69;101676.81;4887904;29;20285;-77
2022/06/21 06:23:30;;;;;;;5.20;1.60;;;;;;;20.39;71.30;101665.75;4898513;29;20048;-77
2022/06/21 06:26:12;;;;;;;3.45;1.63;;;;;;;20.35;72.46;101660.53;4906681;29;20051;-77
2022/06/21 06:28:49;;;;;;;3.05;1.50;;;;;;;20.49;71.65;101665.53;4908628;29;20055;-77
2022/06/21 06:31:32;;;;;;;4.32;1.60;;;;;;;20.57;70.13;101658.22;4868478;29;20052;-77
2022/06/21 06:34:14;;;;;;;5.03;1.75;;;;;;;20.49;71.16;101660.19;4917434;29;20047;-77
2022/06/21 06:36:47;;;;;;;4.10;1.70;;;;;;;20.52;71.68;101660.13;4906254;29;20060;-77
2022/06/21 06:39:32;;;;;;;6.75;1.60;;;;;;;20.49;72.91;101662.84;4902055;29;20143;-77
2022/06/21 06:42:20;;;;;;;5.35;2.15;;;;;;;20.37;72.21;101656.88;4926929;28;20035;-77
2022/06/21 06:44:53;;;;;;;8.27;1.45;;;;;;;20.17;71.27;101654.72;4905529;29;20059;-77
2022/06/21 06:47:28;;;;;;;4.22;1.40;;;;;;;19.86;71.19;101659.88;4872873;29;20155;-77
2022/06/21 06:50:27;;;;;;;4.47;1.60;;;;;;;19.59;72.62;101666.69;4906371;29;20041;-77
2022/06/21 06:53:04;;;;;;;4.72;2.10;;;;;;;19.32;74.58;101669.03;4906875;29;20048;-77
2022/06/21 06:55:42;;;;;;;16.13;2.88;;;;;;;19.13;75.67;101668.53;4918267;29;20048;-77
2022/06/21 06:58:38;;;;;;;61.20;9.30;;;;;;;18.99;77.00;101671.44;4917586;29;20071;-77
2022/06/21 07:01:15;;;;;;;9.30;2.00;;;;;;;18.95;77.46;101669.75;4908363;29;20270;-77
2022/06/21 07:03:51;;;;;;;2.72;2.03;;;;;;;18.99;78.61;101670.56;4878353;29;20047;-77
2022/06/21 07:06:38;;;;;;;3.97;1.83;;;;;;;18.87;78.91;101672.56;4918447;29;20039;-77
2022/06/21 07:09:27;;;;;;;7.35;2.42;;;;;;;18.54;79.41;101668.63;4890913;29;20044;-77
2022/06/21 07:12:06;;;;;;;3.90;2.38;;;;;;;18.11;79.98;101672.03;4905991;29;20052;-77
2022/06/21 07:14:36;;;;;;;7.30;2.33;;;;;;;17.77;81.90;101674.22;4923979;29;20052;-77
2022/06/21 07:17:33;;;;;;;5.95;2.15;;;;;;;17.54;82.67;101668.31;4905361;29;20067;-77
2022/06/21 07:20:18;;;;;;;5.50;2.35;;;;;;;17.32;83.07;101673.00;4868503;29;20079;-78
2022/06/21 07:22:46;;;;;;;7.63;2.08;;;;;;;17.26;83.94;101662.44;4891860;29;20075;-77
2022/06/21 07:25:24;;;;;;;2.63;1.77;;;;;;;17.39;84.21;101678.25;4891941;29;20421;-77
2022/06/21 07:27:57;;;;;;;6.70;2.20;;;;;;;17.63;84.88;101672.63;4895846;29;20044;-77
2022/06/21 07:30:38;;;;;;;4.43;2.13;;;;;;;17.76;84.18;101669.81;4903550;29;20063;-77
2022/06/21 07:33:15;;;;;;;5.97;1.70;;;;;;;17.77;83.07;101675.13;4875387;29;20040;-77
2022/06/21 07:36:08;;;;;;;7.43;2.10;;;;;;;17.59;82.88;101680.69;4879475;29;20528;-77
2022/06/21 07:38:44;;;;;;;6.82;1.67;;;;;;;17.42;83.99;101678.25;4892794;29;20063;-77
2022/06/21 07:41:42;;;;;;;2.35;2.00;;;;;;;17.41;86.44;101677.38;4900892;29;20178;-77
2022/06/21 07:44:19;;;;;;;4.40;2.03;;;;;;;17.59;85.26;101672.69;4905961;29;20360;-77
2022/06/21 07:46:58;;;;;;;6.07;2.10;;;;;;;17.82;85.71;101683.91;4904638;29;20044;-77
2022/06/21 07:49:35;;;;;;;5.07;2.00;;;;;;;18.09;85.90;101676.47;4903886;29;20389;-77
2022/06/21 07:52:10;;;;;;;4.20;2.10;;;;;;;18.25;85.24;101686.00;4873150;29;20041;-76
2022/06/21 07:54:51;;;;;;;6.35;1.75;;;;;;;18.21;83.75;101694.09;4907824;29;20051;-77
2022/06/21 07:57:24;;;;;;;4.05;1.88;;;;;;;18.07;83.36;101695.19;4902047;29;20040;-77
2022/06/21 08:00:00;;;;;;;5.32;2.10;;;;;;;17.89;83.88;101696.31;4908397;29;20055;-76
2022/06/21 08:08:36;;;;;;;6.18;2.05;;;;;;;17.78;85.54;101697.34;4904605;29;20059;-76
2022/06/21 08:11:14;;;;;;;5.35;2.58;;;;;;;17.85;85.03;101696.38;4898873;29;20052;-76
2022/06/21 08:13:44;;;;;;;6.05;2.08;;;;;;;17.86;84.26;101693.69;4912456;29;20413;-76
2022/06/21 08:16:15;;;;;;;6.65;2.42;;;;;;;17.74;83.62;101686.69;4889335;29;20040;-77
2022/06/21 08:19:12;;;;;;;3.45;1.80;;;;;;;17.57;84.60;101694.03;4910896;29;20509;-76
2022/06/21 08:22:05;;;;;;;4.28;1.80;;;;;;;17.52;84.43;101691.44;4909787;29;20071;-79
2022/06/21 08:24:39;;;;;;;3.70;1.95;;;;;;;17.65;84.38;101693.94;4910361;29;20374;-78
2022/06/21 08:27:20;;;;;;;5.78;1.95;;;;;;;17.79;85.96;101694.66;4903548;29;20052;-77
2022/06/21 08:30:18;;;;;;;6.40;2.53;;;;;;;18.00;86.23;101689.97;4911762;29;20530;-76
2022/06/21 08:33:21;;;;;;;3.60;2.22;;;;;;;18.19;85.09;101683.44;4864290;29;20061;-77
2022/06/21 08:36:01;;;;;;;5.47;2.45;;;;;;;18.26;85.21;101686.88;4910348;29;20100;-76
2022/06/21 08:38:43;;;;;;;4.00;2.20;;;;;;;18.43;85.90;101689.28;4863917;29;20075;-77
2022/06/21 08:41:57;;;;;;;3.78;2.22;;;;;;;18.57;83.93;101689.94;4906729;29;20492;-76
2022/06/21 08:44:46;;;;;;;2.53;1.70;;;;;;;18.68;84.21;101687.97;4874224;29;20056;-77
2022/06/21 08:47:35;;;;;;;;;;;;;;;18.82;83.22;101689.56;4909125;29;20699;-77
2022/06/21 08:50:57;;;;;;;4.22;1.80;;;;;;;19.04;85.62;101682.94;4908028;29;19934;-77
2022/06/21 08:53:27;;;;;;;3.63;1.80;;;;;;;19.18;82.17;101681.78;4907147;29;20059;-77
2022/06/21 08:56:17;;;;;;;5.00;2.25;;;;;;;19.31;81.13;101680.63;4874334;29;20044;-77
2022/06/21 08:58:52;;;;;;;4.80;1.83;;;;;;;19.43;82.74;101682.16;4904439;29;20059;-77
2022/06/21 09:01:24;;;;;;;4.50;2.17;;;;;;;19.52;81.46;101676.63;4908828;29;20426;-77
2022/06/21 09:04:17;;;;;;;2.85;2.20;;;;;;;19.58;79.27;101686.31;4908955;29;20370;-77
2022/06/21 09:06:55;;;;;;;5.18;2.05;;;;;;;19.65;79.75;101671.91;4923933;29;20044;-77
2022/06/21 09:09:33;;;;;;;8.63;2.53;;;;;;;19.58;78.03;101668.47;4886199;29;20898;-77
2022/06/21 09:12:26;;;;;;;6.15;2.28;;;;;;;19.50;75.08;101672.25;4905893;29;20050;-77
2022/06/21 09:15:11;;;;;;;4.40;2.08;;;;;;;19.38;78.01;101670.72;4901030;29;20055;-77
2022/06/21 09:17:48;;;;;;;4.85;2.15;;;;;;;19.19;77.97;101678.22;4907272;29;20385;-77
2022/06/21 09:20:26;;;;;;;4.40;2.00;;;;;;;19.01;78.73;101671.41;4905885;29;20257;-77
2022/06/21 09:23:34;;;;;;;4.28;1.88;;;;;;;18.87;78.59;101669.00;4902010;29;20206;-77
2022/06/21 09:26:42;;;;;;;5.70;1.80;;;;;;;18.97;77.57;101662.56;4881157;29;20052;-77
2022/06/21 09:29:32;;;;;;;6.57;1.90;;;;;;;19.14;77.78;101664.06;4894020;29;20345;-77
2022/06/21 09:32:45;;;;;;;3.15;2.10;;;;;;;19.36;75.30;101665.38;4893096;29;20040;-77
2022/06/21 09:35:20;;;;;;;4.75;2.00;;;;;;;19.56;76.52;101656.06;4916451;28;20055;-76
2022/06/21 09:38:14;;;;;;;5.40;2.13;;;;;;;19.57;74.74;101668.53;4922151;29;20040;-76
2022/06/21 09:40:52;;;;;;;4.88;2.13;;;;;;;19.47;75.74;101667.84;4879469;29;20106;-77
2022/06/21 09:44:00;;;;;;;3.10;2.03;;;;;;;19.33;73.69;101667.25;4908427;29;20055;-77
2022/06/21 09:46:46;;;;;;;4.57;1.90;;;;;;;19.27;75.71;101647.75;4913702;29;20051;-77
2022/06/21 09:49:46;;;;;;;4.93;1.90;;;;;;;19.39;75.17;101664.44;4927773;29;20182;-77
2022/06/21 09:52:30;;;;;;;3.88;2.10;;;;;;;19.59;75.20;101653.34;4913710;29;20044;-77
2022/06/21 09:55:15;;;;;;;5.38;2.35;;;;;;;19.79;72.18;101643.13;4912127;29;20068;-77
2022/06/21 09:57:59;;;;;;;4.75;1.90;;;;;;;19.80;73.95;101639.50;4886183;29;20048;-77
2022/06/21 10:00:37;;;;;;;2.97;1.92;;;;;;;19.97;71.13;101644.47;4896443;29;20055;-77
2022/06/21 10:03:26;;;;;;;6.25;2.10;;;;;;;20.12;71.22;101640.56;4911508;29;20048;-76
2022/06/21 10:06:35;;;;;;;3.15;1.95;;;;;;;20.18;71.27;101647.56;4922878;29;20356;-77
2022/06/21 10:09:40;;;;;;;10.43;1.92;;;;;;;20.38;71.72;101647.09;4872851;29;20051;-77
2022/06/21 10:12:36;;;;;;;3.53;1.90;;;;;;;20.39;69.94;101639.00;4879730;29;20056;-77
2022/06/21 10:15:31;;;;;;;5.53;2.20;;;;;;;20.20;67.97;101643.91;4893794;29;21228;-77
2022/06/21 10:18:14;;;;;;;4.15;2.05;;;;;;;20.05;68.67;101639.81;4916318;29;20397;-77
2022/06/21 10:21:06;;;;;;;4.70;1.90;;;;;;;19.93;70.52;101632.09;4921120;29;20056;-77
2022/06/21 10:23:53;;;;;;;5.88;2.30;;;;;;;19.97;70.25;101636.44;4921057;29;20040;-77
2022/06/21 10:26:44;;;;;;;4.90;2.10;;;;;;;20.14;70.32;101635.19;4888019;29;20059;-77
2022/06/21 10:29:50;;;;;;;4.22;1.98;;;;;;;20.38;70.18;101636.38;4884538;29;20713;-77
2022/06/21 10:32:44;;;;;;;4.88;2.40;;;;;;;20.45;71.03;101632.59;4894346;29;20256;-76
2022/06/21 10:35:26;;;;;;;2.65;1.98;;;;;;;20.37;68.77;101619.41;4903378;29;20281;-77
2022/06/21 10:38:11;;;;;;;4.40;2.13;;;;;;;20.16;69.60;101626.19;4911489;29;20060;-77
2022/06/21 10:41:03;;;;;;;3.80;2.22;;;;;;;19.97;69.04;101619.53;4911866;29;20032;-77
2022/06/21 10:44:06;;;;;;;5.43;2.35;;;;;;;19.81;70.35;101617.22;4863411;29;20044;-77
2022/06/21 10:47:02;;;;;;;6.50;2.83;;;;;;;19.71;70.92;101612.06;4909695;29;20052;-77
2022/06/21 10:49:42;;;;;;;3.85;2.78;;;;;;;19.62;71.29;101613.16;4905742;29;20052;-76
2022/06/21 10:52:29;;;;;;;2.85;2.22;;;;;;;19.56;71.04;101608.81;4910365;29;20257;-77
2022/06/21 10:55:10;;;;;;;7.55;2.40;;;;;;;19.45;71.28;101611.75;4895105;29;20051;-77
2022/06/21 10:57:44;;;;;;;;;;;;;;;19.29;68.92;101607.63;4916005;29;20532;-77
2022/06/21 11:03:45;;;;;;;6.22;2.40;;;;;;;19.47;71.36;101609.91;4910224;29;20368;-77
2022/06/21 11:06:24;;;;;;;2.60;2.40;;;;;;;19.41;70.98;101599.38;4908224;29;20086;-77
2022/06/21 11:09:08;;;;;;;4.38;2.72;;;;;;;19.39;71.72;101609.19;4894007;29;20118;-77
2022/06/21 11:11:50;;;;;;;4.30;2.78;;;;;;;19.62;74.21;101603.34;4914949;29;20048;-77
2022/06/21 11:14:24;;;;;;;7.50;2.90;;;;;;;19.94;72.34;101601.75;4879256;29;20266;-76
2022/06/21 11:17:10;;;;;;;4.70;2.97;;;;;;;20.24;72.72;101592.09;4910257;29;20047;-77
2022/06/21 11:20:03;;;;;;;8.18;2.95;;;;;;;20.62;73.33;101589.34;4906959;29;20056;-77
2022/06/21 11:22:34;;;;;;;6.95;2.65;;;;;;;20.96;70.44;101586.66;4911207;29;20052;-77
2022/06/21 11:25:13;;;;;;;2.20;2.00;;;;;;;21.13;66.04;101593.31;4892853;29;20063;-77
2022/06/21 11:28:13;;;;;;;4.25;2.42;;;;;;;21.33;64.03;101571.28;4913297;29;20063;-77
2022/06/21 11:30:48;;;;;;;4.57;2.55;;;;;;;21.51;64.50;101585.94;4871617;29;20056;-77
2022/06/21 11:33:49;;;;;;;7.22;2.45;;;;;;;21.58;62.89;101572.31;4911889;29;20226;-76
2022/06/21 11:36:37;;;;;;;4.20;2.25;;;;;;;21.77;63.39;101569.91;4897765;29;20146;-76
2022/06/21 11:39:32;;;;;;;7.43;2.17;;;;;;;21.96;62.26;101574.69;4904169;29;20274;-77
2022/06/21 11:42:05;;;;;;;4.15;2.20;;;;;;;22.16;62.28;101566.84;4892118;29;20121;-77
2022/06/21 11:44:48;;;;;;;4.75;2.45;;;;;;;22.29;60.44;101575.41;4864101;29;20032;-77
2022/06/21 11:47:29;;;;;;;3.35;2.15;;;;;;;22.39;60.89;101578.66;4907394;29;20056;-76
2022/06/21 11:50:06;;;;;;;;;;;;;;;22.42;58.53;101577.66;4903973;29;20039;-77
2022/06/21 11:52:37;;;;;;;5.10;2.00;;;;;;;22.53;61.38;101575.47;4914706;28;19931;-77
2022/06/21 11:55:17;;;;;;;4.22;2.03;;;;;;;22.62;58.92;101575.16;4895602;29;20059;-77
2022/06/21 11:58:22;;;;;;;3.30;2.05;;;;;;;22.56;57.39;101567.31;4924163;29;20541;-77
2022/06/21 12:01:09;;;;;;;4.78;2.42;;;;;;;22.61;57.74;101572.50;4875737;29;20059;-77
2022/06/21 12:04:02;;;;;;;3.63;2.05;;;;;;;22.63;55.50;101565.28;4912903;29;20044;-77
2022/06/21 12:06:33;;;;;;;4.72;2.25;;;;;;;22.67;58.67;101562.44;4910441;29;20052;-77
2022/06/21 12:09:20;;;;;;;4.47;2.13;;;;;;;22.72;58.54;101557.78;4900692;29;20051;-77
2022/06/21 12:12:19;;;;;;;7.80;2.00;;;;;;;22.59;58.25;101559.16;4907538;29;20063;-77
2022/06/21 12:15:03;;;;;;;6.10;1.85;;;;;;;22.41;58.85;101552.63;4899631;29;20051;-77
2022/06/21 12:17:54;;;;;;;5.00;2.15;;;;;;;22.36;55.89;101546.53;4880246;29;20067;-77
2022/06/21 12:20:31;;;;;;;3.60;2.10;;;;;;;22.38;58.95;101544.66;4896144;29;20173;-77
2022/06/21 12:23:09;;;;;;;10.25;2.60;;;;;;;22.46;61.96;101545.28;4904167;29;20514;-77
2022/06/21 12:25:38;;;;;;;4.65;2.05;;;;;;;22.57;64.39;101551.16;4910406;29;20044;-77
2022/06/21 12:28:17;;;;;;;4.15;1.90;;;;;;;22.72;64.67;101538.06;4904789;29;20067;-77
2022/06/21 12:31:11;;;;;;;3.85;2.15;;;;;;;22.82;64.54;101526.06;4907527;29;20040;-77
2022/06/21 12:33:44;;;;;;;5.63;2.47;;;;;;;22.85;64.71;101534.00;4882367;29;20063;-76
2022/06/21 12:36:22;;;;;;;7.35;2.80;;;;;;;22.86;64.66;101541.16;4920375;29;20277;-77